sensor_id;sensor_type;location;lat;lon;timestamp;temperature;humidity
17425;DHT22;8830;50.978;5.058;2023-05-10T00:02:16;14.40;99.90
17425;DHT22;8830;50.978;5.058;2023-05-10T00:04:44;14.30;99.90
17425;DHT22;8830;50.978;5.058;2023-05-10T00:07:12;14.40;99.90
17425;DHT22;8830;50.978;5.058;2023-05-10T00:09:39;14.40;99.90
17425;DHT22;8830;50.978;5.058;2023-05-10T00:12:06;14.40;99.90
17425;DHT22;8830;50.978;5.058;2023-05-10T00:14:33;14.40;99.90
17425;DHT22;8830;50.978;5.058;2023-05-10T00:17:02;14.40;99.90
17425;DHT22;8830;50.978;5.058;2023-05-10T00:19:29;14.40;99.90
17425;DHT22;8830;50.978;5.058;2023-05-10T00:21:56;14.30;99.90
17425;DHT22;8830;50.978;5.058;2023-05-10T00:24:24;14.30;99.90
17425;DHT22;8830;50.978;5.058;2023-05-10T00:26:51;14.30;99.90
17425;DHT22;8830;50.978;5.058;2023-05-10T00:29:18;14.30;99.90
17425;DHT22;8830;50.978;5.058;2023-05-10T00:31:45;14.20;99.90
17425;DHT22;8830;50.978;5.058;2023-05-10T00:34:14;14.20;99.90
17425;DHT22;8830;50.978;5.058;2023-05-10T00:36:41;14.20;99.90
17425;DHT22;8830;50.978;5.058;2023-05-10T00:39:08;14.10;99.90
17425;DHT22;8830;50.978;5.058;2023-05-10T00:41:35;14.00;99.90
17425;DHT22;8830;50.978;5.058;2023-05-10T00:44:02;14.00;99.90
17425;DHT22;8830;50.978;5.058;2023-05-10T00:46:30;14.00;99.90
17425;DHT22;8830;50.978;5.058;2023-05-10T00:48:57;13.90;99.90
17425;DHT22;8830;50.978;5.058;2023-05-10T00:51:26;14.00;99.90
17425;DHT22;8830;50.978;5.058;2023-05-10T00:53:53;13.90;99.90
17425;DHT22;8830;50.978;5.058;2023-05-10T00:56:21;13.90;99.90
17425;DHT22;8830;50.978;5.058;2023-05-10T00:58:50;13.90;99.90
17425;DHT22;8830;50.978;5.058;2023-05-10T01:01:17;14.00;99.90
17425;DHT22;8830;50.978;5.058;2023-05-10T01:03:45;14.00;99.90
17425;DHT22;8830;50.978;5.058;2023-05-10T01:06:15;14.00;99.90
17425;DHT22;8830;50.978;5.058;2023-05-10T01:08:44;14.00;99.90
17425;DHT22;8830;50.978;5.058;2023-05-10T01:11:11;14.00;99.90
17425;DHT22;8830;50.978;5.058;2023-05-10T01:13:41;14.00;99.90
17425;DHT22;8830;50.978;5.058;2023-05-10T01:16:09;14.00;99.90
17425;DHT22;8830;50.978;5.058;2023-05-10T01:18:39;14.00;99.90
17425;DHT22;8830;50.978;5.058;2023-05-10T01:21:15;14.00;99.90
17425;DHT22;8830;50.978;5.058;2023-05-10T01:27:23;14.00;99.90
17425;DHT22;8830;50.978;5.058;2023-05-10T01:30:23;14.00;99.90
17425;DHT22;8830;50.978;5.058;2023-05-10T01:33:01;14.00;99.90
17425;DHT22;8830;50.978;5.058;2023-05-10T01:35:40;14.00;99.90
17425;DHT22;8830;50.978;5.058;2023-05-10T01:38:14;14.00;99.90
17425;DHT22;8830;50.978;5.058;2023-05-10T01:40:52;13.90;99.90
17425;DHT22;8830;50.978;5.058;2023-05-10T01:43:26;13.90;99.90
17425;DHT22;8830;50.978;5.058;2023-05-10T01:46:02;13.90;99.90
17425;DHT22;8830;50.978;5.058;2023-05-10T01:48:38;14.00;99.90
17425;DHT22;8830;50.978;5.058;2023-05-10T01:51:10;14.00;99.90
17425;DHT22;8830;50.978;5.058;2023-05-10T01:53:38;14.10;99.90
17425;DHT22;8830;50.978;5.058;2023-05-10T01:56:07;14.00;99.90
17425;DHT22;8830;50.978;5.058;2023-05-10T01:58:36;14.00;99.90
17425;DHT22;8830;50.978;5.058;2023-05-10T02:01:06;14.00;99.90
17425;DHT22;8830;50.978;5.058;2023-05-10T02:03:34;14.00;99.90
17425;DHT22;8830;50.978;5.058;2023-05-10T02:06:05;14.00;99.90
17425;DHT22;8830;50.978;5.058;2023-05-10T02:08:35;13.90;99.90
17425;DHT22;8830;50.978;5.058;2023-05-10T02:11:03;14.00;99.90
17425;DHT22;8830;50.978;5.058;2023-05-10T02:13:33;14.00;99.90
17425;DHT22;8830;50.978;5.058;2023-05-10T02:16:02;14.00;99.90
17425;DHT22;8830;50.978;5.058;2023-05-10T02:18:30;14.00;99.90
17425;DHT22;8830;50.978;5.058;2023-05-10T02:20:59;14.00;99.90
17425;DHT22;8830;50.978;5.058;2023-05-10T02:23:28;14.00;99.90
17425;DHT22;8830;50.978;5.058;2023-05-10T02:25:57;14.00;99.90
17425;DHT22;8830;50.978;5.058;2023-05-10T02:28:26;14.00;99.90
17425;DHT22;8830;50.978;5.058;2023-05-10T02:30:54;14.00;99.90
17425;DHT22;8830;50.978;5.058;2023-05-10T02:33:22;14.00;99.90
17425;DHT22;8830;50.978;5.058;2023-05-10T02:35:50;14.00;99.90
17425;DHT22;8830;50.978;5.058;2023-05-10T02:38:19;14.00;99.90
17425;DHT22;8830;50.978;5.058;2023-05-10T02:40:48;14.00;99.90
17425;DHT22;8830;50.978;5.058;2023-05-10T02:43:17;14.00;99.90
17425;DHT22;8830;50.978;5.058;2023-05-10T02:45:47;14.00;99.90
17425;DHT22;8830;50.978;5.058;2023-05-10T02:48:15;14.00;99.90
17425;DHT22;8830;50.978;5.058;2023-05-10T02:50:44;14.00;99.90
17425;DHT22;8830;50.978;5.058;2023-05-10T02:53:15;14.00;99.90
17425;DHT22;8830;50.978;5.058;2023-05-10T02:55:45;14.00;99.90
17425;DHT22;8830;50.978;5.058;2023-05-10T02:58:16;14.00;99.90
17425;DHT22;8830;50.978;5.058;2023-05-10T03:00:45;14.00;99.90
17425;DHT22;8830;50.978;5.058;2023-05-10T03:03:12;14.00;99.90
17425;DHT22;8830;50.978;5.058;2023-05-10T03:08:06;14.00;99.90
17425;DHT22;8830;50.978;5.058;2023-05-10T03:10:38;14.00;99.90
17425;DHT22;8830;50.978;5.058;2023-05-10T03:13:16;14.00;99.90
17425;DHT22;8830;50.978;5.058;2023-05-10T03:15:55;14.00;99.90
17425;DHT22;8830;50.978;5.058;2023-05-10T03:18:29;14.00;99.90
17425;DHT22;8830;50.978;5.058;2023-05-10T03:21:01;14.00;99.90
17425;DHT22;8830;50.978;5.058;2023-05-10T03:23:34;14.00;99.90
17425;DHT22;8830;50.978;5.058;2023-05-10T03:26:02;14.10;99.90
17425;DHT22;8830;50.978;5.058;2023-05-10T03:28:31;14.00;99.90
17425;DHT22;8830;50.978;5.058;2023-05-10T03:31:02;14.00;99.90
17425;DHT22;8830;50.978;5.058;2023-05-10T03:33:31;14.00;99.90
17425;DHT22;8830;50.978;5.058;2023-05-10T03:35:58;14.00;99.90
17425;DHT22;8830;50.978;5.058;2023-05-10T03:38:25;14.00;99.90
17425;DHT22;8830;50.978;5.058;2023-05-10T03:40:54;13.90;99.90
17425;DHT22;8830;50.978;5.058;2023-05-10T03:43:21;13.90;99.90
17425;DHT22;8830;50.978;5.058;2023-05-10T03:45:48;13.90;99.90
17425;DHT22;8830;50.978;5.058;2023-05-10T03:48:17;14.00;99.90
17425;DHT22;8830;50.978;5.058;2023-05-10T03:50:44;13.90;99.90
17425;DHT22;8830;50.978;5.058;2023-05-10T03:53:11;14.00;99.90
17425;DHT22;8830;50.978;5.058;2023-05-10T03:55:39;13.90;99.90
17425;DHT22;8830;50.978;5.058;2023-05-10T03:58:06;13.90;99.90
17425;DHT22;8830;50.978;5.058;2023-05-10T04:00:33;13.90;99.90
17425;DHT22;8830;50.978;5.058;2023-05-10T04:03:00;13.90;99.90
17425;DHT22;8830;50.978;5.058;2023-05-10T04:05:29;13.90;99.90
17425;DHT22;8830;50.978;5.058;2023-05-10T04:07:56;13.90;99.90
17425;DHT22;8830;50.978;5.058;2023-05-10T04:10:25;13.90;99.90
17425;DHT22;8830;50.978;5.058;2023-05-10T04:12:52;13.90;99.90
17425;DHT22;8830;50.978;5.058;2023-05-10T04:15:19;13.90;99.90
17425;DHT22;8830;50.978;5.058;2023-05-10T04:17:46;13.90;99.90
17425;DHT22;8830;50.978;5.058;2023-05-10T04:20:14;13.90;99.90
17425;DHT22;8830;50.978;5.058;2023-05-10T04:22:44;13.80;99.90
17425;DHT22;8830;50.978;5.058;2023-05-10T04:25:11;13.80;99.90
17425;DHT22;8830;50.978;5.058;2023-05-10T04:27:38;13.80;99.90
17425;DHT22;8830;50.978;5.058;2023-05-10T04:30:06;13.80;99.90
17425;DHT22;8830;50.978;5.058;2023-05-10T04:32:34;13.80;99.90
17425;DHT22;8830;50.978;5.058;2023-05-10T04:35:01;13.80;99.90
17425;DHT22;8830;50.978;5.058;2023-05-10T04:37:29;11.60;99.90
17425;DHT22;8830;50.978;5.058;2023-05-10T04:39:57;13.70;99.90
17425;DHT22;8830;50.978;5.058;2023-05-10T04:42:25;13.80;99.90
17425;DHT22;8830;50.978;5.058;2023-05-10T04:44:52;13.70;99.90
17425;DHT22;8830;50.978;5.058;2023-05-10T04:47:20;13.70;99.90
17425;DHT22;8830;50.978;5.058;2023-05-10T04:49:47;13.70;99.90
17425;DHT22;8830;50.978;5.058;2023-05-10T04:52:15;13.70;99.90
17425;DHT22;8830;50.978;5.058;2023-05-10T04:54:43;13.60;99.90
17425;DHT22;8830;50.978;5.058;2023-05-10T04:57:12;13.70;99.90
17425;DHT22;8830;50.978;5.058;2023-05-10T04:59:39;13.70;99.90
17425;DHT22;8830;50.978;5.058;2023-05-10T05:02:06;13.70;99.90
17425;DHT22;8830;50.978;5.058;2023-05-10T05:04:33;13.80;99.90
17425;DHT22;8830;50.978;5.058;2023-05-10T05:07:00;13.80;99.90
17425;DHT22;8830;50.978;5.058;2023-05-10T05:09:29;13.80;99.90
17425;DHT22;8830;50.978;5.058;2023-05-10T05:11:57;13.70;99.90
17425;DHT22;8830;50.978;5.058;2023-05-10T05:14:26;13.70;99.90
17425;DHT22;8830;50.978;5.058;2023-05-10T05:16:53;13.80;99.90
17425;DHT22;8830;50.978;5.058;2023-05-10T05:19:21;13.90;99.90
17425;DHT22;8830;50.978;5.058;2023-05-10T05:21:48;14.00;99.90
17425;DHT22;8830;50.978;5.058;2023-05-10T05:24:15;13.40;99.90
17425;DHT22;8830;50.978;5.058;2023-05-10T05:26:42;14.20;99.90
17425;DHT22;8830;50.978;5.058;2023-05-10T05:29:09;14.10;99.90
17425;DHT22;8830;50.978;5.058;2023-05-10T05:31:38;14.10;99.90
17425;DHT22;8830;50.978;5.058;2023-05-10T05:34:05;14.10;99.90
17425;DHT22;8830;50.978;5.058;2023-05-10T05:36:32;14.10;99.90
17425;DHT22;8830;50.978;5.058;2023-05-10T05:38:59;14.20;99.90
17425;DHT22;8830;50.978;5.058;2023-05-10T05:41:26;14.20;99.90
17425;DHT22;8830;50.978;5.058;2023-05-10T05:43:54;14.30;99.90
17425;DHT22;8830;50.978;5.058;2023-05-10T05:46:20;14.30;99.90
17425;DHT22;8830;50.978;5.058;2023-05-10T05:48:49;14.40;99.90
17425;DHT22;8830;50.978;5.058;2023-05-10T05:51:16;14.30;99.90
17425;DHT22;8830;50.978;5.058;2023-05-10T05:53:46;14.40;99.90
17425;DHT22;8830;50.978;5.058;2023-05-10T05:56:13;14.40;99.90
17425;DHT22;8830;50.978;5.058;2023-05-10T05:58:41;14.50;99.90
17425;DHT22;8830;50.978;5.058;2023-05-10T06:03:38;14.50;99.90
17425;DHT22;8830;50.978;5.058;2023-05-10T06:06:06;14.50;99.90
17425;DHT22;8830;50.978;5.058;2023-05-10T06:08:34;14.60;99.90
17425;DHT22;8830;50.978;5.058;2023-05-10T06:11:04;14.60;99.90
17425;DHT22;8830;50.978;5.058;2023-05-10T06:13:31;14.70;99.90
17425;DHT22;8830;50.978;5.058;2023-05-10T06:16:00;14.70;99.90
17425;DHT22;8830;50.978;5.058;2023-05-10T06:18:29;14.80;99.90
17425;DHT22;8830;50.978;5.058;2023-05-10T06:20:56;14.80;99.90
17425;DHT22;8830;50.978;5.058;2023-05-10T06:23:25;14.90;99.90
17425;DHT22;8830;50.978;5.058;2023-05-10T06:28:19;14.90;99.90
17425;DHT22;8830;50.978;5.058;2023-05-10T06:33:14;14.90;99.90
17425;DHT22;8830;50.978;5.058;2023-05-10T06:35:42;14.90;99.90
17425;DHT22;8830;50.978;5.058;2023-05-10T06:38:09;14.90;99.90
17425;DHT22;8830;50.978;5.058;2023-05-10T06:40:41;14.90;99.90
17425;DHT22;8830;50.978;5.058;2023-05-10T06:43:08;15.00;99.90
17425;DHT22;8830;50.978;5.058;2023-05-10T06:45:36;15.00;99.90
17425;DHT22;8830;50.978;5.058;2023-05-10T06:50:39;15.10;99.90
17425;DHT22;8830;50.978;5.058;2023-05-10T06:53:06;12.70;99.90
17425;DHT22;8830;50.978;5.058;2023-05-10T06:55:34;15.10;99.90
17425;DHT22;8830;50.978;5.058;2023-05-10T06:58:02;15.10;99.90
17425;DHT22;8830;50.978;5.058;2023-05-10T07:00:30;15.20;99.90
17425;DHT22;8830;50.978;5.058;2023-05-10T07:02:57;15.10;99.90
17425;DHT22;8830;50.978;5.058;2023-05-10T07:05:24;15.10;99.90
17425;DHT22;8830;50.978;5.058;2023-05-10T07:07:53;15.10;99.90
17425;DHT22;8830;50.978;5.058;2023-05-10T07:10:20;15.10;99.90
17425;DHT22;8830;50.978;5.058;2023-05-10T07:12:48;15.20;99.90
17425;DHT22;8830;50.978;5.058;2023-05-10T07:15:16;15.80;99.90
17425;DHT22;8830;50.978;5.058;2023-05-10T07:17:43;15.20;99.90
17425;DHT22;8830;50.978;5.058;2023-05-10T07:20:11;15.10;99.90
17425;DHT22;8830;50.978;5.058;2023-05-10T07:22:39;15.10;99.90
17425;DHT22;8830;50.978;5.058;2023-05-10T07:25:07;15.10;99.90
17425;DHT22;8830;50.978;5.058;2023-05-10T07:27:35;15.10;99.90
17425;DHT22;8830;50.978;5.058;2023-05-10T07:30:06;15.10;99.90
17425;DHT22;8830;50.978;5.058;2023-05-10T07:32:36;15.20;99.90
17425;DHT22;8830;50.978;5.058;2023-05-10T07:35:05;15.20;99.90
17425;DHT22;8830;50.978;5.058;2023-05-10T07:37:33;15.30;99.90
17425;DHT22;8830;50.978;5.058;2023-05-10T07:40:00;15.50;99.90
17425;DHT22;8830;50.978;5.058;2023-05-10T07:42:27;15.60;99.90
17425;DHT22;8830;50.978;5.058;2023-05-10T07:44:55;15.70;99.90
17425;DHT22;8830;50.978;5.058;2023-05-10T07:47:22;15.80;99.90
17425;DHT22;8830;50.978;5.058;2023-05-10T07:49:51;15.80;99.90
17425;DHT22;8830;50.978;5.058;2023-05-10T07:52:19;16.00;99.90
17425;DHT22;8830;50.978;5.058;2023-05-10T07:54:46;16.10;99.90
17425;DHT22;8830;50.978;5.058;2023-05-10T07:57:13;16.10;99.90
17425;DHT22;8830;50.978;5.058;2023-05-10T07:59:43;16.10;99.90
17425;DHT22;8830;50.978;5.058;2023-05-10T08:02:11;16.20;99.90
17425;DHT22;8830;50.978;5.058;2023-05-10T08:04:38;16.30;99.90
17425;DHT22;8830;50.978;5.058;2023-05-10T08:07:07;16.40;99.90
17425;DHT22;8830;50.978;5.058;2023-05-10T08:14:30;16.30;99.90
17425;DHT22;8830;50.978;5.058;2023-05-10T08:16:57;16.20;99.90
17425;DHT22;8830;50.978;5.058;2023-05-10T08:19:24;16.20;99.90
17425;DHT22;8830;50.978;5.058;2023-05-10T08:24:20;16.40;99.90
17425;DHT22;8830;50.978;5.058;2023-05-10T08:26:47;16.40;99.90
17425;DHT22;8830;50.978;5.058;2023-05-10T08:29:15;16.60;99.90
17425;DHT22;8830;50.978;5.058;2023-05-10T08:31:42;16.70;99.90
17425;DHT22;8830;50.978;5.058;2023-05-10T08:34:10;16.60;99.90
17425;DHT22;8830;50.978;5.058;2023-05-10T08:36:37;16.50;99.90
17425;DHT22;8830;50.978;5.058;2023-05-10T08:39:04;15.30;99.90
17425;DHT22;8830;50.978;5.058;2023-05-10T08:41:33;16.50;99.90
17425;DHT22;8830;50.978;5.058;2023-05-10T08:44:04;16.50;99.90
17425;DHT22;8830;50.978;5.058;2023-05-10T08:46:34;16.30;99.90
17425;DHT22;8830;50.978;5.058;2023-05-10T08:49:06;16.20;99.90
17425;DHT22;8830;50.978;5.058;2023-05-10T08:51:36;16.10;99.90
17425;DHT22;8830;50.978;5.058;2023-05-10T08:54:04;16.00;99.90
17425;DHT22;8830;50.978;5.058;2023-05-10T08:56:34;16.00;99.90
17425;DHT22;8830;50.978;5.058;2023-05-10T08:59:02;16.00;99.90
17425;DHT22;8830;50.978;5.058;2023-05-10T09:01:31;15.90;99.90
17425;DHT22;8830;50.978;5.058;2023-05-10T09:03:59;15.80;99.90
17425;DHT22;8830;50.978;5.058;2023-05-10T09:06:27;15.80;99.90
17425;DHT22;8830;50.978;5.058;2023-05-10T09:08:54;15.80;99.90
17425;DHT22;8830;50.978;5.058;2023-05-10T09:11:22;15.90;99.90
17425;DHT22;8830;50.978;5.058;2023-05-10T09:13:51;16.10;99.90
17425;DHT22;8830;50.978;5.058;2023-05-10T09:16:19;16.10;99.90
17425;DHT22;8830;50.978;5.058;2023-05-10T09:18:49;16.20;99.90
17425;DHT22;8830;50.978;5.058;2023-05-10T09:21:17;16.30;99.90
17425;DHT22;8830;50.978;5.058;2023-05-10T09:23:46;16.30;99.90
17425;DHT22;8830;50.978;5.058;2023-05-10T09:26:15;16.30;99.90
17425;DHT22;8830;50.978;5.058;2023-05-10T09:28:55;16.50;99.90
17425;DHT22;8830;50.978;5.058;2023-05-10T09:31:23;18.70;99.90
17425;DHT22;8830;50.978;5.058;2023-05-10T09:33:51;17.00;99.90
17425;DHT22;8830;50.978;5.058;2023-05-10T09:36:19;17.30;99.90
17425;DHT22;8830;50.978;5.058;2023-05-10T09:38:47;17.40;99.90
17425;DHT22;8830;50.978;5.058;2023-05-10T09:41:18;17.50;99.90
17425;DHT22;8830;50.978;5.058;2023-05-10T09:43:46;17.40;99.90
17425;DHT22;8830;50.978;5.058;2023-05-10T09:46:16;17.40;99.90
17425;DHT22;8830;50.978;5.058;2023-05-10T09:48:45;17.20;99.90
17425;DHT22;8830;50.978;5.058;2023-05-10T09:51:19;17.30;99.90
17425;DHT22;8830;50.978;5.058;2023-05-10T09:53:47;17.30;99.90
17425;DHT22;8830;50.978;5.058;2023-05-10T09:56:33;17.40;99.90
17425;DHT22;8830;50.978;5.058;2023-05-10T09:59:06;17.50;99.90
17425;DHT22;8830;50.978;5.058;2023-05-10T10:01:35;17.60;99.90
17425;DHT22;8830;50.978;5.058;2023-05-10T10:04:04;17.60;99.90
17425;DHT22;8830;50.978;5.058;2023-05-10T10:06:35;17.80;99.90
17425;DHT22;8830;50.978;5.058;2023-05-10T10:09:04;18.00;99.90
17425;DHT22;8830;50.978;5.058;2023-05-10T10:11:31;18.10;99.90
17425;DHT22;8830;50.978;5.058;2023-05-10T10:13:59;18.20;99.90
17425;DHT22;8830;50.978;5.058;2023-05-10T10:16:27;18.40;99.90
17425;DHT22;8830;50.978;5.058;2023-05-10T10:18:57;18.50;99.90
17425;DHT22;8830;50.978;5.058;2023-05-10T10:21:24;18.40;99.90
17425;DHT22;8830;50.978;5.058;2023-05-10T10:23:51;18.50;99.90
17425;DHT22;8830;50.978;5.058;2023-05-10T10:26:19;18.30;99.90
17425;DHT22;8830;50.978;5.058;2023-05-10T10:28:51;18.20;99.90
17425;DHT22;8830;50.978;5.058;2023-05-10T10:31:30;18.40;99.90
17425;DHT22;8830;50.978;5.058;2023-05-10T10:34:06;18.70;99.90
17425;DHT22;8830;50.978;5.058;2023-05-10T10:36:39;18.80;99.90
17425;DHT22;8830;50.978;5.058;2023-05-10T10:39:22;18.90;99.90
17425;DHT22;8830;50.978;5.058;2023-05-10T10:41:52;18.70;99.90
17425;DHT22;8830;50.978;5.058;2023-05-10T10:44:34;18.80;99.90
17425;DHT22;8830;50.978;5.058;2023-05-10T10:47:07;18.80;99.90
17425;DHT22;8830;50.978;5.058;2023-05-10T10:49:43;18.80;99.90
17425;DHT22;8830;50.978;5.058;2023-05-10T10:52:24;19.00;99.90
17425;DHT22;8830;50.978;5.058;2023-05-10T10:54:59;19.00;99.90
17425;DHT22;8830;50.978;5.058;2023-05-10T10:57:27;19.20;99.90
17425;DHT22;8830;50.978;5.058;2023-05-10T11:00:20;19.30;99.90
17425;DHT22;8830;50.978;5.058;2023-05-10T11:02:49;19.50;99.90
17425;DHT22;8830;50.978;5.058;2023-05-10T11:05:44;19.50;99.90
17425;DHT22;8830;50.978;5.058;2023-05-10T11:08:16;19.40;99.90
17425;DHT22;8830;50.978;5.058;2023-05-10T11:11:07;19.40;99.90
17425;DHT22;8830;50.978;5.058;2023-05-10T11:13:38;19.30;99.90
17425;DHT22;8830;50.978;5.058;2023-05-10T11:16:14;19.40;99.90
17425;DHT22;8830;50.978;5.058;2023-05-10T11:18:57;19.40;99.90
17425;DHT22;8830;50.978;5.058;2023-05-10T11:21:24;19.40;99.90
17425;DHT22;8830;50.978;5.058;2023-05-10T11:23:53;19.30;99.90
17425;DHT22;8830;50.978;5.058;2023-05-10T11:26:23;19.30;99.90
17425;DHT22;8830;50.978;5.058;2023-05-10T11:28:53;19.20;99.90
17425;DHT22;8830;50.978;5.058;2023-05-10T11:31:24;19.10;99.90
17425;DHT22;8830;50.978;5.058;2023-05-10T11:33:54;19.00;99.90
17425;DHT22;8830;50.978;5.058;2023-05-10T11:36:24;19.10;99.90
17425;DHT22;8830;50.978;5.058;2023-05-10T11:38:52;19.00;99.90
17425;DHT22;8830;50.978;5.058;2023-05-10T11:41:21;18.80;99.90
17425;DHT22;8830;50.978;5.058;2023-05-10T11:43:51;19.00;99.90
17425;DHT22;8830;50.978;5.058;2023-05-10T11:46:21;19.20;99.90
17425;DHT22;8830;50.978;5.058;2023-05-10T11:48:50;19.40;99.90
17425;DHT22;8830;50.978;5.058;2023-05-10T11:51:20;19.40;99.90
17425;DHT22;8830;50.978;5.058;2023-05-10T11:53:49;19.50;99.90
17425;DHT22;8830;50.978;5.058;2023-05-10T11:56:18;19.40;99.90
17425;DHT22;8830;50.978;5.058;2023-05-10T11:58:54;20.10;99.90
17425;DHT22;8830;50.978;5.058;2023-05-10T12:01:22;19.40;99.90
17425;DHT22;8830;50.978;5.058;2023-05-10T12:03:50;19.20;99.90
17425;DHT22;8830;50.978;5.058;2023-05-10T12:06:18;19.20;99.90
17425;DHT22;8830;50.978;5.058;2023-05-10T12:08:48;19.10;99.90
17425;DHT22;8830;50.978;5.058;2023-05-10T12:11:18;19.10;99.90
17425;DHT22;8830;50.978;5.058;2023-05-10T12:13:47;19.20;99.90
17425;DHT22;8830;50.978;5.058;2023-05-10T12:16:20;19.10;99.90
17425;DHT22;8830;50.978;5.058;2023-05-10T12:18:48;19.10;99.90
17425;DHT22;8830;50.978;5.058;2023-05-10T12:21:18;19.10;99.90
17425;DHT22;8830;50.978;5.058;2023-05-10T12:23:51;19.00;99.90
17425;DHT22;8830;50.978;5.058;2023-05-10T12:26:22;19.00;99.90
17425;DHT22;8830;50.978;5.058;2023-05-10T12:28:50;19.10;99.90
17425;DHT22;8830;50.978;5.058;2023-05-10T12:31:18;19.50;99.90
17425;DHT22;8830;50.978;5.058;2023-05-10T12:33:46;19.80;99.90
17425;DHT22;8830;50.978;5.058;2023-05-10T12:36:16;19.70;99.90
17425;DHT22;8830;50.978;5.058;2023-05-10T12:38:45;19.90;99.90
17425;DHT22;8830;50.978;5.058;2023-05-10T12:41:14;19.90;99.90
17425;DHT22;8830;50.978;5.058;2023-05-10T12:43:41;19.90;99.90
17425;DHT22;8830;50.978;5.058;2023-05-10T12:46:09;19.90;99.90
17425;DHT22;8830;50.978;5.058;2023-05-10T12:48:39;20.10;99.90
17425;DHT22;8830;50.978;5.058;2023-05-10T12:51:07;20.10;99.90
17425;DHT22;8830;50.978;5.058;2023-05-10T12:53:37;19.90;99.90
17425;DHT22;8830;50.978;5.058;2023-05-10T12:56:05;20.00;99.90
17425;DHT22;8830;50.978;5.058;2023-05-10T12:58:33;20.30;99.90
17425;DHT22;8830;50.978;5.058;2023-05-10T13:01:01;20.50;99.90
17425;DHT22;8830;50.978;5.058;2023-05-10T13:03:28;20.60;99.90
17425;DHT22;8830;50.978;5.058;2023-05-10T13:05:57;20.50;99.90
17425;DHT22;8830;50.978;5.058;2023-05-10T13:08:25;20.50;99.90
17425;DHT22;8830;50.978;5.058;2023-05-10T13:10:52;20.50;99.90
17425;DHT22;8830;50.978;5.058;2023-05-10T13:13:19;20.50;99.90
17425;DHT22;8830;50.978;5.058;2023-05-10T13:15:47;20.40;99.90
17425;DHT22;8830;50.978;5.058;2023-05-10T13:18:14;20.20;99.90
17425;DHT22;8830;50.978;5.058;2023-05-10T13:20:41;20.20;99.90
17425;DHT22;8830;50.978;5.058;2023-05-10T13:23:11;20.60;99.90
17425;DHT22;8830;50.978;5.058;2023-05-10T13:25:38;20.90;99.90
17425;DHT22;8830;50.978;5.058;2023-05-10T13:28:07;21.00;99.90
17425;DHT22;8830;50.978;5.058;2023-05-10T13:30:35;21.30;99.90
17425;DHT22;8830;50.978;5.058;2023-05-10T13:33:02;21.20;99.90
17425;DHT22;8830;50.978;5.058;2023-05-10T13:35:30;19.10;99.90
17425;DHT22;8830;50.978;5.058;2023-05-10T13:37:57;21.20;99.90
17425;DHT22;8830;50.978;5.058;2023-05-10T13:40:25;21.00;99.90
17425;DHT22;8830;50.978;5.058;2023-05-10T13:42:53;20.90;99.90
17425;DHT22;8830;50.978;5.058;2023-05-10T13:45:20;20.90;99.90
17425;DHT22;8830;50.978;5.058;2023-05-10T13:47:48;20.80;99.90
17425;DHT22;8830;50.978;5.058;2023-05-10T13:50:16;20.80;99.90
17425;DHT22;8830;50.978;5.058;2023-05-10T13:52:43;20.90;99.90
17425;DHT22;8830;50.978;5.058;2023-05-10T13:55:11;20.90;99.90
17425;DHT22;8830;50.978;5.058;2023-05-10T13:57:40;20.90;99.90
17425;DHT22;8830;50.978;5.058;2023-05-10T14:00:09;21.10;99.90
17425;DHT22;8830;50.978;5.058;2023-05-10T14:02:36;21.20;99.90
17425;DHT22;8830;50.978;5.058;2023-05-10T14:05:04;21.30;99.90
17425;DHT22;8830;50.978;5.058;2023-05-10T14:07:31;21.50;99.90
17425;DHT22;8830;50.978;5.058;2023-05-10T14:09:59;21.40;99.90
17425;DHT22;8830;50.978;5.058;2023-05-10T14:12:26;21.50;99.90
17425;DHT22;8830;50.978;5.058;2023-05-10T14:14:55;21.30;99.90
17425;DHT22;8830;50.978;5.058;2023-05-10T14:17:23;21.20;99.90
17425;DHT22;8830;50.978;5.058;2023-05-10T14:19:50;21.30;99.90
17425;DHT22;8830;50.978;5.058;2023-05-10T14:22:18;21.60;99.90
17425;DHT22;8830;50.978;5.058;2023-05-10T14:24:45;21.50;99.90
17425;DHT22;8830;50.978;5.058;2023-05-10T14:27:12;21.30;99.90
17425;DHT22;8830;50.978;5.058;2023-05-10T14:29:40;21.10;99.90
17425;DHT22;8830;50.978;5.058;2023-05-10T14:32:09;21.10;99.90
17425;DHT22;8830;50.978;5.058;2023-05-10T14:34:36;21.10;99.90
17425;DHT22;8830;50.978;5.058;2023-05-10T14:37:03;21.10;99.90
17425;DHT22;8830;50.978;5.058;2023-05-10T14:39:30;21.20;99.90
17425;DHT22;8830;50.978;5.058;2023-05-10T14:41:59;21.10;99.90
17425;DHT22;8830;50.978;5.058;2023-05-10T14:44:26;21.00;99.90
17425;DHT22;8830;50.978;5.058;2023-05-10T14:46:53;21.20;99.90
17425;DHT22;8830;50.978;5.058;2023-05-10T14:49:22;21.20;99.90
17425;DHT22;8830;50.978;5.058;2023-05-10T14:51:51;21.10;99.90
17425;DHT22;8830;50.978;5.058;2023-05-10T14:54:19;21.00;99.90
17425;DHT22;8830;50.978;5.058;2023-05-10T14:56:46;21.00;99.90
17425;DHT22;8830;50.978;5.058;2023-05-10T14:59:15;21.10;99.90
17425;DHT22;8830;50.978;5.058;2023-05-10T15:01:42;21.10;99.90
17425;DHT22;8830;50.978;5.058;2023-05-10T15:04:10;21.20;99.90
17425;DHT22;8830;50.978;5.058;2023-05-10T15:06:40;21.20;99.90
17425;DHT22;8830;50.978;5.058;2023-05-10T15:09:07;21.00;99.90
17425;DHT22;8830;50.978;5.058;2023-05-10T15:11:34;21.10;99.90
17425;DHT22;8830;50.978;5.058;2023-05-10T15:14:02;21.10;99.90
17425;DHT22;8830;50.978;5.058;2023-05-10T15:16:29;20.90;99.90
17425;DHT22;8830;50.978;5.058;2023-05-10T15:18:56;20.80;99.90
17425;DHT22;8830;50.978;5.058;2023-05-10T15:21:23;20.70;99.90
17425;DHT22;8830;50.978;5.058;2023-05-10T15:23:51;20.40;99.90
17425;DHT22;8830;50.978;5.058;2023-05-10T15:26:18;20.20;99.90
17425;DHT22;8830;50.978;5.058;2023-05-10T15:28:47;19.90;99.90
17425;DHT22;8830;50.978;5.058;2023-05-10T15:31:15;19.70;99.90
17425;DHT22;8830;50.978;5.058;2023-05-10T15:33:42;19.50;99.90
17425;DHT22;8830;50.978;5.058;2023-05-10T15:36:09;19.30;99.90
17425;DHT22;8830;50.978;5.058;2023-05-10T15:38:37;19.10;99.90
17425;DHT22;8830;50.978;5.058;2023-05-10T15:41:05;19.00;99.90
17425;DHT22;8830;50.978;5.058;2023-05-10T15:43:33;18.90;99.90
17425;DHT22;8830;50.978;5.058;2023-05-10T15:46:00;18.90;99.90
17425;DHT22;8830;50.978;5.058;2023-05-10T15:48:27;18.90;99.90
17425;DHT22;8830;50.978;5.058;2023-05-10T15:50:57;18.90;99.90
17425;DHT22;8830;50.978;5.058;2023-05-10T15:53:24;18.90;99.90
17425;DHT22;8830;50.978;5.058;2023-05-10T15:55:52;19.00;99.90
17425;DHT22;8830;50.978;5.058;2023-05-10T15:58:21;19.10;99.90
17425;DHT22;8830;50.978;5.058;2023-05-10T16:00:48;19.10;99.90
17425;DHT22;8830;50.978;5.058;2023-05-10T16:03:15;19.00;99.90
17425;DHT22;8830;50.978;5.058;2023-05-10T16:05:43;19.00;99.90
17425;DHT22;8830;50.978;5.058;2023-05-10T16:08:10;18.90;99.90
17425;DHT22;8830;50.978;5.058;2023-05-10T16:10:37;18.90;99.90
17425;DHT22;8830;50.978;5.058;2023-05-10T16:13:06;18.90;99.90
17425;DHT22;8830;50.978;5.058;2023-05-10T16:15:35;18.80;99.90
17425;DHT22;8830;50.978;5.058;2023-05-10T16:18:03;18.80;99.90
17425;DHT22;8830;50.978;5.058;2023-05-10T16:20:31;18.70;99.90